sensor_id;sensor_type;location;lat;lon;timestamp;P1;durP1;ratioP1;P2;durP2;ratioP2
58643;SDS011;44411;49.994;8.660;2023-08-30T00:01:18;6.77;;;4.80;;
58643;SDS011;44411;49.994;8.660;2023-08-30T00:03:43;7.47;;;5.43;;
58643;SDS011;44411;49.994;8.660;2023-08-30T00:06:08;8.40;;;5.70;;
58643;SDS011;44411;49.994;8.660;2023-08-30T00:08:34;6.28;;;5.20;;
58643;SDS011;44411;49.994;8.660;2023-08-30T00:10:59;9.45;;;5.65;;
58643;SDS011;44411;49.994;8.660;2023-08-30T00:13:25;8.93;;;5.65;;
58643;SDS011;44411;49.994;8.660;2023-08-30T00:15:50;8.32;;;5.68;;
58643;SDS011;44411;49.994;8.660;2023-08-30T00:18:16;10.65;;;5.88;;
58643;SDS011;44411;49.994;8.660;2023-08-30T00:20:42;9.00;;;5.03;;
58643;SDS011;44411;49.994;8.660;2023-08-30T00:23:07;9.30;;;5.90;;
58643;SDS011;44411;49.994;8.660;2023-08-30T00:25:33;10.77;;;5.53;;
58643;SDS011;44411;49.994;8.660;2023-08-30T00:27:58;7.67;;;5.30;;
58643;SDS011;44411;49.994;8.660;2023-08-30T00:30:23;8.20;;;5.97;;
58643;SDS011;44411;49.994;8.660;2023-08-30T00:32:48;10.43;;;5.80;;
58643;SDS011;44411;49.994;8.660;2023-08-30T00:35:14;8.27;;;5.68;;
58643;SDS011;44411;49.994;8.660;2023-08-30T00:37:39;8.53;;;5.57;;
58643;SDS011;44411;49.994;8.660;2023-08-30T00:40:05;7.35;;;6.07;;
58643;SDS011;44411;49.994;8.660;2023-08-30T00:42:31;9.82;;;5.72;;
58643;SDS011;44411;49.994;8.660;2023-08-30T00:44:56;8.18;;;6.72;;
58643;SDS011;44411;49.994;8.660;2023-08-30T00:47:22;8.07;;;5.60;;
58643;SDS011;44411;49.994;8.660;2023-08-30T00:49:47;9.68;;;6.47;;
58643;SDS011;44411;49.994;8.660;2023-08-30T00:52:13;12.10;;;6.18;;
58643;SDS011;44411;49.994;8.660;2023-08-30T00:54:38;9.13;;;6.20;;
58643;SDS011;44411;49.994;8.660;2023-08-30T00:57:04;8.03;;;6.20;;
58643;SDS011;44411;49.994;8.660;2023-08-30T00:59:29;8.32;;;6.28;;
58643;SDS011;44411;49.994;8.660;2023-08-30T01:01:57;9.05;;;6.07;;
58643;SDS011;44411;49.994;8.660;2023-08-30T01:04:22;11.20;;;6.47;;
58643;SDS011;44411;49.994;8.660;2023-08-30T01:06:48;8.57;;;6.30;;
58643;SDS011;44411;49.994;8.660;2023-08-30T01:09:13;12.63;;;6.35;;
58643;SDS011;44411;49.994;8.660;2023-08-30T01:11:40;11.25;;;6.55;;
58643;SDS011;44411;49.994;8.660;2023-08-30T01:14:09;8.65;;;6.10;;
58643;SDS011;44411;49.994;8.660;2023-08-30T01:16:35;7.50;;;6.30;;
58643;SDS011;44411;49.994;8.660;2023-08-30T01:19:02;7.45;;;6.15;;
58643;SDS011;44411;49.994;8.660;2023-08-30T01:24:00;10.93;;;6.97;;
58643;SDS011;44411;49.994;8.660;2023-08-30T01:28:53;8.63;;;6.87;;
58643;SDS011;44411;49.994;8.660;2023-08-30T01:31:21;8.20;;;6.47;;
58643;SDS011;44411;49.994;8.660;2023-08-30T01:33:46;9.82;;;7.43;;
58643;SDS011;44411;49.994;8.660;2023-08-30T01:36:11;9.45;;;7.70;;
58643;SDS011;44411;49.994;8.660;2023-08-30T01:38:37;11.30;;;7.68;;
58643;SDS011;44411;49.994;8.660;2023-08-30T01:41:03;9.10;;;8.20;;
58643;SDS011;44411;49.994;8.660;2023-08-30T01:43:29;11.20;;;8.13;;
58643;SDS011;44411;49.994;8.660;2023-08-30T01:45:55;11.80;;;8.15;;
58643;SDS011;44411;49.994;8.660;2023-08-30T01:48:21;11.00;;;8.23;;
58643;SDS011;44411;49.994;8.660;2023-08-30T01:50:47;12.15;;;8.75;;
58643;SDS011;44411;49.994;8.660;2023-08-30T01:53:13;9.85;;;8.73;;
58643;SDS011;44411;49.994;8.660;2023-08-30T01:55:39;9.90;;;8.27;;
58643;SDS011;44411;49.994;8.660;2023-08-30T01:58:05;10.10;;;8.30;;
58643;SDS011;44411;49.994;8.660;2023-08-30T02:00:31;9.90;;;8.68;;
58643;SDS011;44411;49.994;8.660;2023-08-30T02:02:56;10.80;;;9.07;;
58643;SDS011;44411;49.994;8.660;2023-08-30T02:05:21;12.38;;;8.82;;
58643;SDS011;44411;49.994;8.660;2023-08-30T02:10:13;11.33;;;8.77;;
58643;SDS011;44411;49.994;8.660;2023-08-30T02:12:46;10.88;;;8.90;;
58643;SDS011;44411;49.994;8.660;2023-08-30T02:15:12;10.10;;;8.55;;
58643;SDS011;44411;49.994;8.660;2023-08-30T02:17:38;11.18;;;9.18;;
58643;SDS011;44411;49.994;8.660;2023-08-30T02:20:04;9.88;;;8.88;;
58643;SDS011;44411;49.994;8.660;2023-08-30T02:22:30;11.35;;;10.00;;
58643;SDS011;44411;49.994;8.660;2023-08-30T02:24:55;11.48;;;9.38;;
58643;SDS011;44411;49.994;8.660;2023-08-30T02:27:21;13.73;;;9.83;;
58643;SDS011;44411;49.994;8.660;2023-08-30T02:29:46;11.67;;;9.17;;
58643;SDS011;44411;49.994;8.660;2023-08-30T02:32:11;11.10;;;9.83;;
58643;SDS011;44411;49.994;8.660;2023-08-30T02:34:36;13.07;;;9.17;;
58643;SDS011;44411;49.994;8.660;2023-08-30T02:37:02;12.20;;;9.07;;
58643;SDS011;44411;49.994;8.660;2023-08-30T02:39:27;12.57;;;9.87;;
58643;SDS011;44411;49.994;8.660;2023-08-30T02:41:52;11.90;;;10.10;;
58643;SDS011;44411;49.994;8.660;2023-08-30T02:44:18;12.68;;;10.05;;
58643;SDS011;44411;49.994;8.660;2023-08-30T02:46:43;13.43;;;9.90;;
58643;SDS011;44411;49.994;8.660;2023-08-30T02:49:08;13.17;;;10.87;;
58643;SDS011;44411;49.994;8.660;2023-08-30T02:51:34;11.75;;;9.60;;
58643;SDS011;44411;49.994;8.660;2023-08-30T02:53:59;11.80;;;10.38;;
58643;SDS011;44411;49.994;8.660;2023-08-30T02:56:24;13.60;;;10.77;;
58643;SDS011;44411;49.994;8.660;2023-08-30T02:58:50;11.98;;;9.77;;
58643;SDS011;44411;49.994;8.660;2023-08-30T03:01:15;13.02;;;11.02;;
58643;SDS011;44411;49.994;8.660;2023-08-30T03:03:41;14.90;;;10.35;;
58643;SDS011;44411;49.994;8.660;2023-08-30T03:06:06;14.30;;;10.70;;
58643;SDS011;44411;49.994;8.660;2023-08-30T03:08:31;10.77;;;9.25;;
58643;SDS011;44411;49.994;8.660;2023-08-30T03:11:07;11.27;;;10.07;;
58643;SDS011;44411;49.994;8.660;2023-08-30T03:13:32;11.48;;;9.10;;
58643;SDS011;44411;49.994;8.660;2023-08-30T03:15:57;11.90;;;9.77;;
58643;SDS011;44411;49.994;8.660;2023-08-30T03:18:22;12.60;;;10.53;;
58643;SDS011;44411;49.994;8.660;2023-08-30T03:20:47;11.57;;;10.00;;
58643;SDS011;44411;49.994;8.660;2023-08-30T03:23:13;13.80;;;10.03;;
58643;SDS011;44411;49.994;8.660;2023-08-30T03:25:38;10.90;;;9.77;;
58643;SDS011;44411;49.994;8.660;2023-08-30T03:28:03;11.77;;;10.40;;
58643;SDS011;44411;49.994;8.660;2023-08-30T03:30:29;12.63;;;9.70;;
58643;SDS011;44411;49.994;8.660;2023-08-30T03:32:54;10.35;;;8.95;;
58643;SDS011;44411;49.994;8.660;2023-08-30T03:35:20;10.95;;;9.38;;
58643;SDS011;44411;49.994;8.660;2023-08-30T03:37:46;10.15;;;9.07;;
58643;SDS011;44411;49.994;8.660;2023-08-30T03:40:11;12.70;;;9.20;;
58643;SDS011;44411;49.994;8.660;2023-08-30T03:42:37;14.13;;;9.27;;
58643;SDS011;44411;49.994;8.660;2023-08-30T03:45:02;11.00;;;9.70;;
58643;SDS011;44411;49.994;8.660;2023-08-30T03:47:28;12.05;;;10.65;;
58643;SDS011;44411;49.994;8.660;2023-08-30T03:49:53;11.13;;;9.97;;
58643;SDS011;44411;49.994;8.660;2023-08-30T03:52:18;11.33;;;9.63;;
58643;SDS011;44411;49.994;8.660;2023-08-30T03:54:43;10.40;;;9.10;;
58643;SDS011;44411;49.994;8.660;2023-08-30T03:57:08;13.40;;;9.83;;
58643;SDS011;44411;49.994;8.660;2023-08-30T03:59:34;11.27;;;9.83;;
58643;SDS011;44411;49.994;8.660;2023-08-30T04:01:59;11.20;;;9.80;;
58643;SDS011;44411;49.994;8.660;2023-08-30T04:04:25;13.23;;;10.23;;
58643;SDS011;44411;49.994;8.660;2023-08-30T04:06:50;11.80;;;10.07;;
58643;SDS011;44411;49.994;8.660;2023-08-30T04:09:16;11.80;;;9.60;;
58643;SDS011;44411;49.994;8.660;2023-08-30T04:11:41;9.82;;;8.82;;
58643;SDS011;44411;49.994;8.660;2023-08-30T04:14:07;12.95;;;9.85;;
58643;SDS011;44411;49.994;8.660;2023-08-30T04:16:32;13.95;;;9.73;;
58643;SDS011;44411;49.994;8.660;2023-08-30T04:18:58;10.53;;;8.97;;
58643;SDS011;44411;49.994;8.660;2023-08-30T04:21:23;11.97;;;9.23;;
58643;SDS011;44411;49.994;8.660;2023-08-30T04:23:48;10.15;;;8.55;;
58643;SDS011;44411;49.994;8.660;2023-08-30T04:26:13;10.55;;;8.60;;
58643;SDS011;44411;49.994;8.660;2023-08-30T04:28:39;12.20;;;9.20;;
58643;SDS011;44411;49.994;8.660;2023-08-30T04:31:04;11.05;;;8.27;;
58643;SDS011;44411;49.994;8.660;2023-08-30T04:33:29;13.07;;;9.17;;
58643;SDS011;44411;49.994;8.660;2023-08-30T04:35:54;13.93;;;8.83;;
58643;SDS011;44411;49.994;8.660;2023-08-30T04:38:20;11.60;;;9.32;;
58643;SDS011;44411;49.994;8.660;2023-08-30T04:40:46;12.82;;;8.80;;
58643;SDS011;44411;49.994;8.660;2023-08-30T04:43:11;11.27;;;8.35;;
58643;SDS011;44411;49.994;8.660;2023-08-30T04:45:36;8.93;;;7.67;;
58643;SDS011;44411;49.994;8.660;2023-08-30T04:48:01;9.52;;;8.05;;
58643;SDS011;44411;49.994;8.660;2023-08-30T04:50:27;9.27;;;8.15;;
58643;SDS011;44411;49.994;8.660;2023-08-30T04:52:52;10.38;;;8.50;;
58643;SDS011;44411;49.994;8.660;2023-08-30T04:55:17;10.30;;;8.50;;
58643;SDS011;44411;49.994;8.660;2023-08-30T04:57:42;9.98;;;8.18;;
58643;SDS011;44411;49.994;8.660;2023-08-30T05:00:10;11.63;;;8.68;;
58643;SDS011;44411;49.994;8.660;2023-08-30T05:02:35;10.00;;;8.48;;
58643;SDS011;44411;49.994;8.660;2023-08-30T05:05:01;11.77;;;9.10;;
58643;SDS011;44411;49.994;8.660;2023-08-30T05:07:26;9.75;;;8.75;;
58643;SDS011;44411;49.994;8.660;2023-08-30T05:09:51;11.17;;;9.87;;
58643;SDS011;44411;49.994;8.660;2023-08-30T05:12:16;11.60;;;9.00;;
58643;SDS011;44411;49.994;8.660;2023-08-30T05:14:42;10.27;;;9.27;;
58643;SDS011;44411;49.994;8.660;2023-08-30T05:17:07;11.90;;;9.57;;
58643;SDS011;44411;49.994;8.660;2023-08-30T05:19:32;10.98;;;9.20;;
58643;SDS011;44411;49.994;8.660;2023-08-30T05:21:57;10.70;;;9.70;;
58643;SDS011;44411;49.994;8.660;2023-08-30T05:24:23;11.50;;;9.90;;
58643;SDS011;44411;49.994;8.660;2023-08-30T05:26:48;9.98;;;8.82;;
58643;SDS011;44411;49.994;8.660;2023-08-30T05:29:14;11.15;;;8.80;;
58643;SDS011;44411;49.994;8.660;2023-08-30T05:31:39;12.38;;;9.10;;
58643;SDS011;44411;49.994;8.660;2023-08-30T05:34:05;11.73;;;9.50;;
58643;SDS011;44411;49.994;8.660;2023-08-30T05:36:30;12.03;;;9.10;;
58643;SDS011;44411;49.994;8.660;2023-08-30T05:38:55;11.90;;;9.53;;
58643;SDS011;44411;49.994;8.660;2023-08-30T05:41:20;11.10;;;9.93;;
58643;SDS011;44411;49.994;8.660;2023-08-30T05:43:45;12.30;;;9.73;;
58643;SDS011;44411;49.994;8.660;2023-08-30T05:46:11;10.90;;;8.97;;
58643;SDS011;44411;49.994;8.660;2023-08-30T05:48:39;12.50;;;9.77;;
58643;SDS011;44411;49.994;8.660;2023-08-30T05:51:05;13.53;;;9.70;;
58643;SDS011;44411;49.994;8.660;2023-08-30T05:53:30;13.00;;;11.20;;
58643;SDS011;44411;49.994;8.660;2023-08-30T05:55:55;13.60;;;11.10;;
58643;SDS011;44411;49.994;8.660;2023-08-30T05:58:20;13.80;;;11.67;;
58643;SDS011;44411;49.994;8.660;2023-08-30T06:00:46;13.65;;;11.15;;
58643;SDS011;44411;49.994;8.660;2023-08-30T06:03:11;12.50;;;10.70;;
58643;SDS011;44411;49.994;8.660;2023-08-30T06:05:36;12.33;;;10.53;;
58643;SDS011;44411;49.994;8.660;2023-08-30T06:08:01;12.83;;;10.73;;
58643;SDS011;44411;49.994;8.660;2023-08-30T06:10:27;12.95;;;10.48;;
58643;SDS011;44411;49.994;8.660;2023-08-30T06:12:52;12.10;;;10.90;;
58643;SDS011;44411;49.994;8.660;2023-08-30T06:15:18;12.30;;;10.60;;
58643;SDS011;44411;49.994;8.660;2023-08-30T06:17:43;12.68;;;10.57;;
58643;SDS011;44411;49.994;8.660;2023-08-30T06:20:08;11.63;;;10.43;;
58643;SDS011;44411;49.994;8.660;2023-08-30T06:22:34;12.73;;;11.43;;
58643;SDS011;44411;49.994;8.660;2023-08-30T06:24:59;13.47;;;12.07;;
58643;SDS011;44411;49.994;8.660;2023-08-30T06:27:24;14.33;;;12.00;;
58643;SDS011;44411;49.994;8.660;2023-08-30T06:29:49;14.33;;;12.80;;
58643;SDS011;44411;49.994;8.660;2023-08-30T06:32:15;14.52;;;12.93;;
58643;SDS011;44411;49.994;8.660;2023-08-30T06:34:41;14.27;;;12.50;;
58643;SDS011;44411;49.994;8.660;2023-08-30T06:37:07;14.47;;;12.97;;
58643;SDS011;44411;49.994;8.660;2023-08-30T06:39:33;15.88;;;13.95;;
58643;SDS011;44411;49.994;8.660;2023-08-30T06:41:59;15.30;;;13.70;;
58643;SDS011;44411;49.994;8.660;2023-08-30T06:44:24;18.17;;;13.30;;
58643;SDS011;44411;49.994;8.660;2023-08-30T06:46:50;14.90;;;13.37;;
58643;SDS011;44411;49.994;8.660;2023-08-30T06:49:15;17.47;;;14.10;;
58643;SDS011;44411;49.994;8.660;2023-08-30T06:51:40;15.87;;;14.27;;
58643;SDS011;44411;49.994;8.660;2023-08-30T06:54:05;16.80;;;15.10;;
58643;SDS011;44411;49.994;8.660;2023-08-30T06:56:30;19.10;;;17.10;;
58643;SDS011;44411;49.994;8.660;2023-08-30T06:58:56;18.77;;;16.88;;
58643;SDS011;44411;49.994;8.660;2023-08-30T07:01:21;20.63;;;17.98;;
58643;SDS011;44411;49.994;8.660;2023-08-30T07:03:46;20.40;;;18.40;;
58643;SDS011;44411;49.994;8.660;2023-08-30T07:06:11;20.20;;;18.10;;
58643;SDS011;44411;49.994;8.660;2023-08-30T07:08:37;19.57;;;17.57;;
58643;SDS011;44411;49.994;8.660;2023-08-30T07:11:03;19.92;;;17.90;;
58643;SDS011;44411;49.994;8.660;2023-08-30T07:13:28;20.52;;;18.13;;
58643;SDS011;44411;49.994;8.660;2023-08-30T07:15:53;19.40;;;17.50;;
58643;SDS011;44411;49.994;8.660;2023-08-30T07:18:19;20.25;;;17.75;;
58643;SDS011;44411;49.994;8.660;2023-08-30T07:20:44;19.92;;;17.88;;
58643;SDS011;44411;49.994;8.660;2023-08-30T07:23:10;20.30;;;18.25;;
58643;SDS011;44411;49.994;8.660;2023-08-30T07:25:36;20.55;;;18.45;;
58643;SDS011;44411;49.994;8.660;2023-08-30T07:28:02;20.25;;;18.27;;
58643;SDS011;44411;49.994;8.660;2023-08-30T07:30:27;20.50;;;18.45;;
58643;SDS011;44411;49.994;8.660;2023-08-30T07:32:53;21.77;;;19.33;;
58643;SDS011;44411;49.994;8.660;2023-08-30T07:35:18;20.90;;;18.67;;
58643;SDS011;44411;49.994;8.660;2023-08-30T07:37:43;19.40;;;17.35;;
58643;SDS011;44411;49.994;8.660;2023-08-30T07:40:09;20.60;;;18.40;;
58643;SDS011;44411;49.994;8.660;2023-08-30T07:42:34;20.85;;;18.85;;
58643;SDS011;44411;49.994;8.660;2023-08-30T07:44:59;21.05;;;18.85;;
58643;SDS011;44411;49.994;8.660;2023-08-30T07:47:24;21.07;;;18.50;;
58643;SDS011;44411;49.994;8.660;2023-08-30T07:49:50;20.83;;;18.73;;
58643;SDS011;44411;49.994;8.660;2023-08-30T07:52:15;20.10;;;18.17;;
58643;SDS011;44411;49.994;8.660;2023-08-30T07:54:40;20.67;;;18.47;;
58643;SDS011;44411;49.994;8.660;2023-08-30T07:57:06;24.70;;;19.05;;
58643;SDS011;44411;49.994;8.660;2023-08-30T07:59:37;20.33;;;18.33;;
58643;SDS011;44411;49.994;8.660;2023-08-30T08:02:03;21.00;;;19.00;;
58643;SDS011;44411;49.994;8.660;2023-08-30T08:04:35;20.85;;;18.83;;
58643;SDS011;44411;49.994;8.660;2023-08-30T08:07:00;19.98;;;17.92;;
58643;SDS011;44411;49.994;8.660;2023-08-30T08:09:25;21.30;;;17.88;;
58643;SDS011;44411;49.994;8.660;2023-08-30T08:11:51;20.50;;;18.23;;
58643;SDS011;44411;49.994;8.660;2023-08-30T08:14:16;20.73;;;18.58;;
58643;SDS011;44411;49.994;8.660;2023-08-30T08:16:41;21.13;;;18.92;;
58643;SDS011;44411;49.994;8.660;2023-08-30T08:19:07;20.17;;;18.10;;
58643;SDS011;44411;49.994;8.660;2023-08-30T08:21:33;19.85;;;17.85;;
58643;SDS011;44411;49.994;8.660;2023-08-30T08:23:58;20.92;;;18.50;;
58643;SDS011;44411;49.994;8.660;2023-08-30T08:26:23;20.52;;;18.55;;
58643;SDS011;44411;49.994;8.660;2023-08-30T08:28:50;19.85;;;17.85;;
58643;SDS011;44411;49.994;8.660;2023-08-30T08:31:15;20.37;;;18.53;;
58643;SDS011;44411;49.994;8.660;2023-08-30T08:33:40;20.10;;;18.27;;
58643;SDS011;44411;49.994;8.660;2023-08-30T08:36:05;21.57;;;19.47;;
58643;SDS011;44411;49.994;8.660;2023-08-30T08:38:31;21.00;;;19.00;;
58643;SDS011;44411;49.994;8.660;2023-08-30T08:41:03;20.70;;;18.67;;
58643;SDS011;44411;49.994;8.660;2023-08-30T08:43:29;20.70;;;18.58;;
58643;SDS011;44411;49.994;8.660;2023-08-30T08:46:00;19.17;;;17.27;;
58643;SDS011;44411;49.994;8.660;2023-08-30T08:48:26;18.17;;;16.58;;
58643;SDS011;44411;49.994;8.660;2023-08-30T08:50:53;18.00;;;15.70;;
58643;SDS011;44411;49.994;8.660;2023-08-30T08:53:19;16.90;;;15.30;;
58643;SDS011;44411;49.994;8.660;2023-08-30T08:55:44;17.17;;;15.57;;
58643;SDS011;44411;49.994;8.660;2023-08-30T08:58:10;17.73;;;15.93;;
58643;SDS011;44411;49.994;8.660;2023-08-30T09:00:36;16.30;;;14.80;;
58643;SDS011;44411;49.994;8.660;2023-08-30T09:03:02;18.02;;;16.23;;
58643;SDS011;44411;49.994;8.660;2023-08-30T09:05:29;16.77;;;15.18;;
58643;SDS011;44411;49.994;8.660;2023-08-30T09:07:58;16.77;;;13.90;;
58643;SDS011;44411;49.994;8.660;2023-08-30T09:10:25;16.63;;;14.93;;
58643;SDS011;44411;49.994;8.660;2023-08-30T09:12:50;17.33;;;15.63;;
58643;SDS011;44411;49.994;8.660;2023-08-30T09:15:15;16.83;;;15.13;;
58643;SDS011;44411;49.994;8.660;2023-08-30T09:17:41;15.45;;;13.63;;
58643;SDS011;44411;49.994;8.660;2023-08-30T09:20:10;16.95;;;15.35;;
58643;SDS011;44411;49.994;8.660;2023-08-30T09:22:39;16.55;;;14.85;;
58643;SDS011;44411;49.994;8.660;2023-08-30T09:25:05;16.63;;;15.02;;
58643;SDS011;44411;49.994;8.660;2023-08-30T09:27:31;16.90;;;15.23;;
58643;SDS011;44411;49.994;8.660;2023-08-30T09:29:58;17.63;;;15.93;;
58643;SDS011;44411;49.994;8.660;2023-08-30T09:32:23;16.57;;;14.90;;
58643;SDS011;44411;49.994;8.660;2023-08-30T09:34:48;16.40;;;14.87;;
58643;SDS011;44411;49.994;8.660;2023-08-30T09:37:20;17.40;;;15.80;;
58643;SDS011;44411;49.994;8.660;2023-08-30T09:39:52;17.17;;;15.48;;
58643;SDS011;44411;49.994;8.660;2023-08-30T09:42:17;16.33;;;14.80;;
58643;SDS011;44411;49.994;8.660;2023-08-30T09:44:43;14.82;;;13.50;;
58643;SDS011;44411;49.994;8.660;2023-08-30T09:47:08;14.70;;;13.30;;
58643;SDS011;44411;49.994;8.660;2023-08-30T09:49:36;14.27;;;12.88;;
58643;SDS011;44411;49.994;8.660;2023-08-30T09:52:05;15.23;;;13.82;;
58643;SDS011;44411;49.994;8.660;2023-08-30T09:54:33;14.80;;;13.40;;
58643;SDS011;44411;49.994;8.660;2023-08-30T09:56:59;14.40;;;12.95;;
58643;SDS011;44411;49.994;8.660;2023-08-30T09:59:26;12.65;;;11.35;;
58643;SDS011;44411;49.994;8.660;2023-08-30T10:01:51;12.30;;;11.10;;
58643;SDS011;44411;49.994;8.660;2023-08-30T10:04:18;12.93;;;11.63;;
58643;SDS011;44411;49.994;8.660;2023-08-30T10:06:43;16.40;;;11.60;;
58643;SDS011;44411;49.994;8.660;2023-08-30T10:09:10;11.73;;;10.55;;
58643;SDS011;44411;49.994;8.660;2023-08-30T10:11:36;11.43;;;10.23;;
58643;SDS011;44411;49.994;8.660;2023-08-30T10:14:08;12.55;;;10.55;;
58643;SDS011;44411;49.994;8.660;2023-08-30T10:16:43;10.82;;;9.68;;
58643;SDS011;44411;49.994;8.660;2023-08-30T10:24:27;10.50;;;9.32;;
58643;SDS011;44411;49.994;8.660;2023-08-30T10:26:53;10.25;;;8.60;;
58643;SDS011;44411;49.994;8.660;2023-08-30T10:29:20;9.05;;;7.60;;
58643;SDS011;44411;49.994;8.660;2023-08-30T10:31:45;8.75;;;7.85;;
58643;SDS011;44411;49.994;8.660;2023-08-30T10:34:15;9.73;;;7.30;;
58643;SDS011;44411;49.994;8.660;2023-08-30T10:36:41;8.65;;;7.75;;
58643;SDS011;44411;49.994;8.660;2023-08-30T10:39:11;7.70;;;6.80;;
58643;SDS011;44411;49.994;8.660;2023-08-30T10:41:36;9.98;;;7.55;;
58643;SDS011;44411;49.994;8.660;2023-08-30T10:44:02;8.53;;;7.03;;
58643;SDS011;44411;49.994;8.660;2023-08-30T10:46:32;8.75;;;7.75;;
58643;SDS011;44411;49.994;8.660;2023-08-30T10:49:07;8.98;;;6.95;;
58643;SDS011;44411;49.994;8.660;2023-08-30T10:51:37;8.43;;;6.05;;
58643;SDS011;44411;49.994;8.660;2023-08-30T10:54:15;8.02;;;5.88;;
58643;SDS011;44411;49.994;8.660;2023-08-30T10:56:48;5.60;;;4.68;;
58643;SDS011;44411;49.994;8.660;2023-08-30T10:59:20;7.80;;;5.78;;
58643;SDS011;44411;49.994;8.660;2023-08-30T11:01:46;6.07;;;5.28;;
58643;SDS011;44411;49.994;8.660;2023-08-30T11:04:12;5.22;;;4.00;;
58643;SDS011;44411;49.994;8.660;2023-08-30T11:06:39;6.57;;;4.78;;
58643;SDS011;44411;49.994;8.660;2023-08-30T11:09:04;5.95;;;4.70;;
58643;SDS011;44411;49.994;8.660;2023-08-30T11:11:29;9.48;;;5.82;;
58643;SDS011;44411;49.994;8.660;2023-08-30T11:14:03;6.40;;;5.18;;
58643;SDS011;44411;49.994;8.660;2023-08-30T11:16:28;5.28;;;3.33;;
58643;SDS011;44411;49.994;8.660;2023-08-30T11:18:53;5.07;;;3.67;;
58643;SDS011;44411;49.994;8.660;2023-08-30T11:21:18;6.33;;;3.57;;
58643;SDS011;44411;49.994;8.660;2023-08-30T11:23:45;5.22;;;3.63;;
58643;SDS011;44411;49.994;8.660;2023-08-30T11:26:10;7.40;;;3.60;;
58643;SDS011;44411;49.994;8.660;2023-08-30T11:28:37;5.38;;;3.60;;
58643;SDS011;44411;49.994;8.660;2023-08-30T11:31:06;6.28;;;3.65;;
58643;SDS011;44411;49.994;8.660;2023-08-30T11:33:31;6.03;;;3.53;;
58643;SDS011;44411;49.994;8.660;2023-08-30T11:35:57;5.43;;;4.20;;
58643;SDS011;44411;49.994;8.660;2023-08-30T11:38:23;5.47;;;3.72;;
58643;SDS011;44411;49.994;8.660;2023-08-30T11:40:48;5.50;;;3.50;;
58643;SDS011;44411;49.994;8.660;2023-08-30T11:43:14;5.20;;;3.70;;
58643;SDS011;44411;49.994;8.660;2023-08-30T11:45:40;6.55;;;3.78;;
58643;SDS011;44411;49.994;8.660;2023-08-30T11:48:05;4.57;;;3.20;;
58643;SDS011;44411;49.994;8.660;2023-08-30T11:50:31;6.03;;;3.65;;
58643;SDS011;44411;49.994;8.660;2023-08-30T11:52:56;5.22;;;3.53;;
58643;SDS011;44411;49.994;8.660;2023-08-30T11:55:21;4.57;;;3.35;;
58643;SDS011;44411;49.994;8.660;2023-08-30T11:57:50;4.28;;;3.13;;
58643;SDS011;44411;49.994;8.660;2023-08-30T12:00:18;5.65;;;4.05;;
58643;SDS011;44411;49.994;8.660;2023-08-30T12:02:43;6.30;;;4.70;;
58643;SDS011;44411;49.994;8.660;2023-08-30T12:05:12;9.25;;;4.40;;
58643;SDS011;44411;49.994;8.660;2023-08-30T12:07:38;6.68;;;4.47;;
58643;SDS011;44411;49.994;8.660;2023-08-30T12:10:11;7.15;;;4.35;;
58643;SDS011;44411;49.994;8.660;2023-08-30T12:12:36;5.90;;;3.90;;
58643;SDS011;44411;49.994;8.660;2023-08-30T12:15:07;6.45;;;3.78;;
58643;SDS011;44411;49.994;8.660;2023-08-30T12:17:34;8.65;;;4.80;;
58643;SDS011;44411;49.994;8.660;2023-08-30T12:19:59;7.57;;;4.57;;
58643;SDS011;44411;49.994;8.660;2023-08-30T12:25:02;7.35;;;4.47;;
58643;SDS011;44411;49.994;8.660;2023-08-30T12:27:28;7.40;;;4.40;;
58643;SDS011;44411;49.994;8.660;2023-08-30T12:29:54;5.40;;;4.13;;
58643;SDS011;44411;49.994;8.660;2023-08-30T12:32:19;5.80;;;3.90;;
58643;SDS011;44411;49.994;8.660;2023-08-30T12:34:44;7.73;;;4.63;;
58643;SDS011;44411;49.994;8.660;2023-08-30T12:37:09;7.27;;;4.10;;
58643;SDS011;44411;49.994;8.660;2023-08-30T12:39:34;5.93;;;4.33;;
58643;SDS011;44411;49.994;8.660;2023-08-30T12:41:59;6.67;;;4.60;;
58643;SDS011;44411;49.994;8.660;2023-08-30T12:44:25;6.40;;;4.43;;
58643;SDS011;44411;49.994;8.660;2023-08-30T12:46:50;8.35;;;4.65;;
58643;SDS011;44411;49.994;8.660;2023-08-30T12:49:15;8.87;;;4.77;;
58643;SDS011;44411;49.994;8.660;2023-08-30T12:51:40;6.50;;;5.13;;
58643;SDS011;44411;49.994;8.660;2023-08-30T12:54:06;6.33;;;4.27;;
58643;SDS011;44411;49.994;8.660;2023-08-30T12:56:31;6.78;;;4.50;;
58643;SDS011;44411;49.994;8.660;2023-08-30T12:58:56;6.73;;;4.30;;
58643;SDS011;44411;49.994;8.660;2023-08-30T13:01:21;7.53;;;4.32;;
58643;SDS011;44411;49.994;8.660;2023-08-30T13:03:47;5.88;;;4.20;;
58643;SDS011;44411;49.994;8.660;2023-08-30T13:06:12;6.93;;;4.07;;
58643;SDS011;44411;49.994;8.660;2023-08-30T13:08:38;5.70;;;4.03;;
58643;SDS011;44411;49.994;8.660;2023-08-30T13:11:03;6.00;;;3.70;;
58643;SDS011;44411;49.994;8.660;2023-08-30T13:13:29;5.75;;;3.97;;
58643;SDS011;44411;49.994;8.660;2023-08-30T13:15:54;6.63;;;4.13;;
58643;SDS011;44411;49.994;8.660;2023-08-30T13:18:19;6.75;;;3.70;;
58643;SDS011;44411;49.994;8.660;2023-08-30T13:20:44;5.90;;;4.20;;
58643;SDS011;44411;49.994;8.660;2023-08-30T13:23:10;6.03;;;4.33;;
58643;SDS011;44411;49.994;8.660;2023-08-30T13:25:38;5.70;;;4.20;;
58643;SDS011;44411;49.994;8.660;2023-08-30T13:28:03;6.10;;;3.90;;
58643;SDS011;44411;49.994;8.660;2023-08-30T13:30:29;7.18;;;3.65;;
58643;SDS011;44411;49.994;8.660;2023-08-30T13:32:54;5.67;;;3.80;;
58643;SDS011;44411;49.994;8.660;2023-08-30T13:35:19;7.33;;;4.40;;
58643;SDS011;44411;49.994;8.660;2023-08-30T13:37:44;8.27;;;4.40;;
58643;SDS011;44411;49.994;8.660;2023-08-30T13:40:10;8.50;;;3.97;;
58643;SDS011;44411;49.994;8.660;2023-08-30T13:42:35;7.20;;;3.60;;
58643;SDS011;44411;49.994;8.660;2023-08-30T13:45:00;5.60;;;3.73;;
58643;SDS011;44411;49.994;8.660;2023-08-30T13:47:26;6.32;;;3.70;;
58643;SDS011;44411;49.994;8.660;2023-08-30T13:49:51;7.20;;;4.30;;
58643;SDS011;44411;49.994;8.660;2023-08-30T13:52:16;5.97;;;3.92;;
58643;SDS011;44411;49.994;8.660;2023-08-30T13:54:41;8.10;;;4.90;;
58643;SDS011;44411;49.994;8.660;2023-08-30T13:57:07;7.03;;;4.30;;
58643;SDS011;44411;49.994;8.660;2023-08-30T13:59:32;6.20;;;4.70;;
58643;SDS011;44411;49.994;8.660;2023-08-30T14:01:57;6.20;;;4.17;;
58643;SDS011;44411;49.994;8.660;2023-08-30T14:04:23;6.22;;;4.20;;
58643;SDS011;44411;49.994;8.660;2023-08-30T14:06:49;6.75;;;4.28;;
58643;SDS011;44411;49.994;8.660;2023-08-30T14:09:14;6.43;;;4.10;;
58643;SDS011;44411;49.994;8.660;2023-08-30T14:11:40;5.35;;;4.13;;
58643;SDS011;44411;49.994;8.660;2023-08-30T14:14:06;5.65;;;3.88;;
58643;SDS011;44411;49.994;8.660;2023-08-30T14:16:31;6.07;;;3.95;;
58643;SDS011;44411;49.994;8.660;2023-08-30T14:18:57;6.53;;;4.50;;
58643;SDS011;44411;49.994;8.660;2023-08-30T14:21:25;7.10;;;4.47;;
58643;SDS011;44411;49.994;8.660;2023-08-30T14:23:50;5.75;;;4.18;;
58643;SDS011;44411;49.994;8.660;2023-08-30T14:26:15;6.23;;;4.23;;
58643;SDS011;44411;49.994;8.660;2023-08-30T14:28:40;6.57;;;4.03;;
58643;SDS011;44411;49.994;8.660;2023-08-30T14:31:06;7.05;;;4.40;;
58643;SDS011;44411;49.994;8.660;2023-08-30T14:33:32;7.00;;;4.15;;
58643;SDS011;44411;49.994;8.660;2023-08-30T14:35:58;6.40;;;3.80;;
58643;SDS011;44411;49.994;8.660;2023-08-30T14:38:23;7.13;;;4.28;;
58643;SDS011;44411;49.994;8.660;2023-08-30T14:40:55;7.40;;;4.07;;
58643;SDS011;44411;49.994;8.660;2023-08-30T14:43:20;5.65;;;4.20;;